Flight Number: EUR3019 Duration: 7:00
Departure: Baltimore Washington Intl (KBWI) at 07:00 Distance: 3173 Nm
Arrival: Gatwick Airport (EGKK) at 14:00 Equipment: B777

Weather Information
BALTIMORE-WASHINGTON INTERNATIONAL , MD, United States (KBWI) 39-10N 076-41W 59M Nov 19, 2018 - 04:54 PM EST / 2018.11.19 2154 UTC
Wind: from the NNE (030 degrees) at 5 MPH (4 KT):0
Visibility: 8 mile(s):0
Sky conditions: mostly cloudy Temperature: 50.0 F (10.0 C) Dew Point: 44.1 F (6.7 C) Relative Humidity: 79% Pressure (altimeter): 29.97 in. Hg (1014 hPa)
ob: KBWI 192154Z 03004KT 8SM BKN180 BKN250 10/07 A2997 RMK AO2 SLP151 T01000067 cycle: 22
Sunrise: 11:58 Sunset: 21:46 (UTC)

London / Gatwick Airport, United Kingdom (EGKK) 51-09N 000-11W 0M Nov 19, 2018 - 05:20 PM EST / 2018.11.19 2220 UTC
Wind: from the NE (040 degrees) at 12 MPH (10 KT):0
Visibility: greater than 7 mile(s):0
Sky conditions: partly cloudy Temperature: 39 F (4 C) Dew Point: 35 F (2 C) Relative Humidity: 86% Pressure (altimeter): 29.94 in. Hg (1014 hPa)
ob: EGKK 192220Z 04010KT 9999 FEW017 SCT030 04/02 Q1014 cycle: 22
Sunrise: 07:29 Sunset: 16:03 (UTC)

TAF:2018/11/19 18:09 TAF EGKK 191659Z 1918/2024 05013KT 9999 BKN020 TEMPO 1918/2021 6000 SHRA BKN014 PROB30 TEMPO 1920/2016 04016G26KT 4000 +SHRA BKN008 BECMG 2021/2024 07003KT TEMPO 2021/2024 5000 BR BKN007

Previous Pireps for this route
Date Aircraft Flight time Fuel used Landing rate On time
2013-02-04A34007.09176480-953No
2013-12-03B7479.10171000Yes
2016-06-07B77706.36127079-304No
(pireps marked green are flown by you)

Route map